sensor_id;sensor_type;location;lat;lon;timestamp;temperature;humidity
19803;DHT22;66074;50.764;6.090;2023-05-20T00:00:03;13.80;82.60
19803;DHT22;66074;50.764;6.090;2023-05-20T00:02:29;13.80;82.80
19803;DHT22;66074;50.764;6.090;2023-05-20T00:04:54;13.70;82.90
19803;DHT22;66074;50.764;6.090;2023-05-20T00:07:20;13.70;82.90
19803;DHT22;66074;50.764;6.090;2023-05-20T00:09:46;13.70;83.10
19803;DHT22;66074;50.764;6.090;2023-05-20T00:12:11;13.60;83.20
19803;DHT22;66074;50.764;6.090;2023-05-20T00:14:37;13.60;83.40
19803;DHT22;66074;50.764;6.090;2023-05-20T00:17:02;13.50;83.40
19803;DHT22;66074;50.764;6.090;2023-05-20T00:19:28;13.40;83.40
19803;DHT22;66074;50.764;6.090;2023-05-20T00:21:54;13.40;83.50
19803;DHT22;66074;50.764;6.090;2023-05-20T00:24:22;13.40;83.70
19803;DHT22;66074;50.764;6.090;2023-05-20T00:26:48;13.30;83.80
19803;DHT22;66074;50.764;6.090;2023-05-20T00:29:14;13.30;84.00
19803;DHT22;66074;50.764;6.090;2023-05-20T00:31:39;13.30;84.10
19803;DHT22;66074;50.764;6.090;2023-05-20T00:34:06;13.30;84.20
19803;DHT22;66074;50.764;6.090;2023-05-20T00:36:32;13.20;84.20
19803;DHT22;66074;50.764;6.090;2023-05-20T00:38:58;13.20;84.20
19803;DHT22;66074;50.764;6.090;2023-05-20T00:41:23;13.20;84.40
19803;DHT22;66074;50.764;6.090;2023-05-20T00:43:55;13.10;84.50
19803;DHT22;66074;50.764;6.090;2023-05-20T00:46:22;13.10;85.10
19803;DHT22;66074;50.764;6.090;2023-05-20T00:48:48;13.00;84.80
19803;DHT22;66074;50.764;6.090;2023-05-20T00:51:15;13.00;85.00
19803;DHT22;66074;50.764;6.090;2023-05-20T00:53:41;12.90;85.20
19803;DHT22;66074;50.764;6.090;2023-05-20T00:56:08;12.90;85.20
19803;DHT22;66074;50.764;6.090;2023-05-20T00:58:34;13.00;85.50
19803;DHT22;66074;50.764;6.090;2023-05-20T01:01:03;12.90;85.40
19803;DHT22;66074;50.764;6.090;2023-05-20T01:03:29;12.90;85.40
19803;DHT22;66074;50.764;6.090;2023-05-20T01:05:54;12.90;85.60
19803;DHT22;66074;50.764;6.090;2023-05-20T01:08:24;12.90;85.80
19803;DHT22;66074;50.764;6.090;2023-05-20T01:11:25;12.90;86.30
19803;DHT22;66074;50.764;6.090;2023-05-20T01:13:59;12.90;88.10
19803;DHT22;66074;50.764;6.090;2023-05-20T01:16:29;12.80;86.30
19803;DHT22;66074;50.764;6.090;2023-05-20T01:18:58;12.80;86.20
19803;DHT22;66074;50.764;6.090;2023-05-20T01:21:26;12.70;86.10
19803;DHT22;66074;50.764;6.090;2023-05-20T01:23:55;12.70;86.10
19803;DHT22;66074;50.764;6.090;2023-05-20T01:26:21;12.70;86.30
19803;DHT22;66074;50.764;6.090;2023-05-20T01:28:51;12.70;86.40
19803;DHT22;66074;50.764;6.090;2023-05-20T01:31:21;12.60;86.40
19803;DHT22;66074;50.764;6.090;2023-05-20T01:33:51;12.60;86.70
19803;DHT22;66074;50.764;6.090;2023-05-20T01:36:20;12.60;86.80
19803;DHT22;66074;50.764;6.090;2023-05-20T01:38:48;12.50;86.50
19803;DHT22;66074;50.764;6.090;2023-05-20T01:41:14;12.40;86.90
19803;DHT22;66074;50.764;6.090;2023-05-20T01:43:40;12.40;87.00
19803;DHT22;66074;50.764;6.090;2023-05-20T01:46:06;12.40;87.20
19803;DHT22;66074;50.764;6.090;2023-05-20T01:48:32;12.40;87.30
19803;DHT22;66074;50.764;6.090;2023-05-20T01:50:57;12.40;87.30
19803;DHT22;66074;50.764;6.090;2023-05-20T01:53:23;12.40;87.40
19803;DHT22;66074;50.764;6.090;2023-05-20T01:55:48;12.40;87.40
19803;DHT22;66074;50.764;6.090;2023-05-20T01:58:14;12.40;87.60
19803;DHT22;66074;50.764;6.090;2023-05-20T02:00:40;12.40;87.70
19803;DHT22;66074;50.764;6.090;2023-05-20T02:03:06;12.30;87.70
19803;DHT22;66074;50.764;6.090;2023-05-20T02:05:31;12.30;88.10
19803;DHT22;66074;50.764;6.090;2023-05-20T02:07:57;12.20;87.90
19803;DHT22;66074;50.764;6.090;2023-05-20T02:10:23;12.20;88.00
19803;DHT22;66074;50.764;6.090;2023-05-20T02:12:48;12.20;88.10
19803;DHT22;66074;50.764;6.090;2023-05-20T02:15:14;12.10;88.10
19803;DHT22;66074;50.764;6.090;2023-05-20T02:17:39;12.10;88.30
19803;DHT22;66074;50.764;6.090;2023-05-20T02:20:08;12.10;88.40
19803;DHT22;66074;50.764;6.090;2023-05-20T02:22:34;12.10;88.50
19803;DHT22;66074;50.764;6.090;2023-05-20T02:25:00;12.10;88.60
19803;DHT22;66074;50.764;6.090;2023-05-20T02:27:26;12.10;88.70
19803;DHT22;66074;50.764;6.090;2023-05-20T02:29:52;12.10;88.80
19803;DHT22;66074;50.764;6.090;2023-05-20T02:32:17;12.10;89.00
19803;DHT22;66074;50.764;6.090;2023-05-20T02:34:45;12.10;88.90
19803;DHT22;66074;50.764;6.090;2023-05-20T02:37:10;12.10;89.00
19803;DHT22;66074;50.764;6.090;2023-05-20T02:39:36;12.10;89.10
19803;DHT22;66074;50.764;6.090;2023-05-20T02:42:01;12.10;89.10
19803;DHT22;66074;50.764;6.090;2023-05-20T02:44:29;12.00;89.20
19803;DHT22;66074;50.764;6.090;2023-05-20T02:46:54;12.00;89.40
19803;DHT22;66074;50.764;6.090;2023-05-20T02:49:20;11.90;89.30
19803;DHT22;66074;50.764;6.090;2023-05-20T02:51:46;11.90;89.50
19803;DHT22;66074;50.764;6.090;2023-05-20T02:54:11;12.00;89.70
19803;DHT22;66074;50.764;6.090;2023-05-20T02:56:37;11.90;89.40
19803;DHT22;66074;50.764;6.090;2023-05-20T02:59:03;11.90;89.60
19803;DHT22;66074;50.764;6.090;2023-05-20T03:01:29;11.90;89.50
19803;DHT22;66074;50.764;6.090;2023-05-20T03:03:55;11.90;89.70
19803;DHT22;66074;50.764;6.090;2023-05-20T03:06:20;11.80;89.60
19803;DHT22;66074;50.764;6.090;2023-05-20T03:08:46;11.90;89.80
19803;DHT22;66074;50.764;6.090;2023-05-20T03:11:12;11.80;89.80
19803;DHT22;66074;50.764;6.090;2023-05-20T03:13:37;11.80;90.00
19803;DHT22;66074;50.764;6.090;2023-05-20T03:16:03;11.70;90.00
19803;DHT22;66074;50.764;6.090;2023-05-20T03:18:29;11.70;90.00
19803;DHT22;66074;50.764;6.090;2023-05-20T03:20:55;11.60;90.10
19803;DHT22;66074;50.764;6.090;2023-05-20T03:23:20;11.60;90.10
19803;DHT22;66074;50.764;6.090;2023-05-20T03:25:46;11.60;90.20
19803;DHT22;66074;50.764;6.090;2023-05-20T03:28:12;11.60;90.20
19803;DHT22;66074;50.764;6.090;2023-05-20T03:30:38;11.60;90.30
19803;DHT22;66074;50.764;6.090;2023-05-20T03:33:03;11.60;90.30
19803;DHT22;66074;50.764;6.090;2023-05-20T03:35:30;11.60;90.40
19803;DHT22;66074;50.764;6.090;2023-05-20T03:37:56;11.60;90.40
19803;DHT22;66074;50.764;6.090;2023-05-20T03:40:23;11.60;90.40
19803;DHT22;66074;50.764;6.090;2023-05-20T03:42:48;11.60;90.40
19803;DHT22;66074;50.764;6.090;2023-05-20T03:45:17;11.60;90.40
19803;DHT22;66074;50.764;6.090;2023-05-20T03:47:42;11.60;90.40
19803;DHT22;66074;50.764;6.090;2023-05-20T03:50:08;11.60;90.40
19803;DHT22;66074;50.764;6.090;2023-05-20T03:52:34;11.60;90.40
19803;DHT22;66074;50.764;6.090;2023-05-20T03:54:59;11.60;90.50
19803;DHT22;66074;50.764;6.090;2023-05-20T03:57:25;11.60;90.50
19803;DHT22;66074;50.764;6.090;2023-05-20T03:59:51;11.60;90.50
19803;DHT22;66074;50.764;6.090;2023-05-20T04:02:16;11.60;90.50
19803;DHT22;66074;50.764;6.090;2023-05-20T04:04:42;11.60;90.90
19803;DHT22;66074;50.764;6.090;2023-05-20T04:07:10;11.60;90.60
19803;DHT22;66074;50.764;6.090;2023-05-20T04:09:37;11.50;90.70
19803;DHT22;66074;50.764;6.090;2023-05-20T04:12:03;11.50;90.60
19803;DHT22;66074;50.764;6.090;2023-05-20T04:14:29;11.50;90.70
19803;DHT22;66074;50.764;6.090;2023-05-20T04:16:55;11.50;90.70
19803;DHT22;66074;50.764;6.090;2023-05-20T04:19:21;11.50;90.70
19803;DHT22;66074;50.764;6.090;2023-05-20T04:21:48;11.50;90.80
19803;DHT22;66074;50.764;6.090;2023-05-20T04:24:14;11.50;90.80
19803;DHT22;66074;50.764;6.090;2023-05-20T04:26:39;11.50;90.80
19803;DHT22;66074;50.764;6.090;2023-05-20T04:29:05;11.60;90.90
19803;DHT22;66074;50.764;6.090;2023-05-20T04:31:30;11.50;90.80
19803;DHT22;66074;50.764;6.090;2023-05-20T04:33:57;11.40;90.80
19803;DHT22;66074;50.764;6.090;2023-05-20T04:36:23;11.50;90.90
19803;DHT22;66074;50.764;6.090;2023-05-20T04:38:53;11.50;90.90
19803;DHT22;66074;50.764;6.090;2023-05-20T04:41:19;11.50;90.90
19803;DHT22;66074;50.764;6.090;2023-05-20T04:43:45;11.50;91.00
19803;DHT22;66074;50.764;6.090;2023-05-20T04:46:11;11.50;90.90
19803;DHT22;66074;50.764;6.090;2023-05-20T04:48:36;11.50;91.10
19803;DHT22;66074;50.764;6.090;2023-05-20T04:51:02;11.50;91.10
19803;DHT22;66074;50.764;6.090;2023-05-20T04:53:28;11.60;91.20
19803;DHT22;66074;50.764;6.090;2023-05-20T04:55:55;11.60;91.20
19803;DHT22;66074;50.764;6.090;2023-05-20T04:58:21;11.60;91.20
19803;DHT22;66074;50.764;6.090;2023-05-20T05:00:49;11.80;91.30
19803;DHT22;66074;50.764;6.090;2023-05-20T05:03:14;11.60;91.20
19803;DHT22;66074;50.764;6.090;2023-05-20T05:05:41;11.70;91.20
19803;DHT22;66074;50.764;6.090;2023-05-20T05:08:08;11.70;91.30
19803;DHT22;66074;50.764;6.090;2023-05-20T05:10:34;11.70;91.30
19803;DHT22;66074;50.764;6.090;2023-05-20T05:13:00;11.80;91.40
19803;DHT22;66074;50.764;6.090;2023-05-20T05:15:27;11.80;91.40
19803;DHT22;66074;50.764;6.090;2023-05-20T05:17:52;11.80;91.40
19803;DHT22;66074;50.764;6.090;2023-05-20T05:20:18;11.90;91.30
19803;DHT22;66074;50.764;6.090;2023-05-20T05:22:44;11.90;91.20
19803;DHT22;66074;50.764;6.090;2023-05-20T05:25:11;11.90;91.20
19803;DHT22;66074;50.764;6.090;2023-05-20T05:27:37;12.00;91.20
19803;DHT22;66074;50.764;6.090;2023-05-20T05:30:04;12.00;91.20
19803;DHT22;66074;50.764;6.090;2023-05-20T05:32:30;12.00;91.30
19803;DHT22;66074;50.764;6.090;2023-05-20T05:34:56;12.00;91.20
19803;DHT22;66074;50.764;6.090;2023-05-20T05:37:22;12.10;91.20
19803;DHT22;66074;50.764;6.090;2023-05-20T05:39:47;12.10;91.10
19803;DHT22;66074;50.764;6.090;2023-05-20T05:42:13;12.10;91.20
19803;DHT22;66074;50.764;6.090;2023-05-20T05:44:39;12.20;91.50
19803;DHT22;66074;50.764;6.090;2023-05-20T05:47:04;12.20;91.30
19803;DHT22;66074;50.764;6.090;2023-05-20T05:49:31;12.20;91.10
19803;DHT22;66074;50.764;6.090;2023-05-20T05:51:57;12.30;91.30
19803;DHT22;66074;50.764;6.090;2023-05-20T05:54:23;12.30;91.30
19803;DHT22;66074;50.764;6.090;2023-05-20T05:56:51;12.40;91.20
19803;DHT22;66074;50.764;6.090;2023-05-20T05:59:17;12.50;91.50
19803;DHT22;66074;50.764;6.090;2023-05-20T06:01:43;12.50;91.30
19803;DHT22;66074;50.764;6.090;2023-05-20T06:04:09;12.50;91.30
19803;DHT22;66074;50.764;6.090;2023-05-20T06:06:34;12.60;91.60
19803;DHT22;66074;50.764;6.090;2023-05-20T06:09:00;12.60;91.40
19803;DHT22;66074;50.764;6.090;2023-05-20T06:11:25;12.60;91.40
19803;DHT22;66074;50.764;6.090;2023-05-20T06:13:51;12.60;91.30
19803;DHT22;66074;50.764;6.090;2023-05-20T06:16:17;12.60;91.40
19803;DHT22;66074;50.764;6.090;2023-05-20T06:18:44;12.60;91.50
19803;DHT22;66074;50.764;6.090;2023-05-20T06:21:10;12.60;91.60
19803;DHT22;66074;50.764;6.090;2023-05-20T06:23:36;12.70;91.80
19803;DHT22;66074;50.764;6.090;2023-05-20T06:26:01;12.70;91.40
19803;DHT22;66074;50.764;6.090;2023-05-20T06:28:28;12.80;91.60
19803;DHT22;66074;50.764;6.090;2023-05-20T06:30:54;12.80;91.70
19803;DHT22;66074;50.764;6.090;2023-05-20T06:33:23;12.90;91.40
19803;DHT22;66074;50.764;6.090;2023-05-20T06:35:55;13.00;91.70
19803;DHT22;66074;50.764;6.090;2023-05-20T06:38:21;13.10;91.60
19803;DHT22;66074;50.764;6.090;2023-05-20T06:40:47;13.20;91.50
19803;DHT22;66074;50.764;6.090;2023-05-20T06:43:14;13.30;91.60
19803;DHT22;66074;50.764;6.090;2023-05-20T06:45:40;13.30;91.60
19803;DHT22;66074;50.764;6.090;2023-05-20T06:48:06;13.40;91.50
19803;DHT22;66074;50.764;6.090;2023-05-20T06:50:32;13.50;91.60
19803;DHT22;66074;50.764;6.090;2023-05-20T06:52:58;13.60;91.50
19803;DHT22;66074;50.764;6.090;2023-05-20T06:55:24;13.70;91.50
19803;DHT22;66074;50.764;6.090;2023-05-20T06:57:50;13.70;91.50
19803;DHT22;66074;50.764;6.090;2023-05-20T07:00:16;13.70;91.50
19803;DHT22;66074;50.764;6.090;2023-05-20T07:02:41;13.80;91.50
19803;DHT22;66074;50.764;6.090;2023-05-20T07:05:08;13.90;91.50
19803;DHT22;66074;50.764;6.090;2023-05-20T07:07:34;14.00;91.50
19803;DHT22;66074;50.764;6.090;2023-05-20T07:10:00;14.00;91.40
19803;DHT22;66074;50.764;6.090;2023-05-20T07:12:25;14.10;91.40
19803;DHT22;66074;50.764;6.090;2023-05-20T07:14:51;14.10;91.40
19803;DHT22;66074;50.764;6.090;2023-05-20T07:17:17;14.10;91.40
19803;DHT22;66074;50.764;6.090;2023-05-20T07:19:42;14.10;91.50
19803;DHT22;66074;50.764;6.090;2023-05-20T07:22:08;14.20;91.50
19803;DHT22;66074;50.764;6.090;2023-05-20T07:24:36;14.30;91.40
19803;DHT22;66074;50.764;6.090;2023-05-20T07:27:02;14.50;91.50
19803;DHT22;66074;50.764;6.090;2023-05-20T07:29:28;14.50;91.30
19803;DHT22;66074;50.764;6.090;2023-05-20T07:31:54;14.50;91.30
19803;DHT22;66074;50.764;6.090;2023-05-20T07:34:19;14.50;91.30
19803;DHT22;66074;50.764;6.090;2023-05-20T07:36:47;14.60;91.30
19803;DHT22;66074;50.764;6.090;2023-05-20T07:39:13;14.70;91.30
19803;DHT22;66074;50.764;6.090;2023-05-20T07:41:39;14.80;91.30
19803;DHT22;66074;50.764;6.090;2023-05-20T07:44:05;14.90;91.20
19803;DHT22;66074;50.764;6.090;2023-05-20T07:46:33;15.00;91.20
19803;DHT22;66074;50.764;6.090;2023-05-20T07:48:59;15.10;91.10
19803;DHT22;66074;50.764;6.090;2023-05-20T07:51:25;15.20;91.20
19803;DHT22;66074;50.764;6.090;2023-05-20T07:53:50;15.30;91.20
19803;DHT22;66074;50.764;6.090;2023-05-20T07:56:16;15.50;91.20
19803;DHT22;66074;50.764;6.090;2023-05-20T07:58:42;15.60;91.20
19803;DHT22;66074;50.764;6.090;2023-05-20T08:01:08;15.60;91.00
19803;DHT22;66074;50.764;6.090;2023-05-20T08:03:34;15.70;90.90
19803;DHT22;66074;50.764;6.090;2023-05-20T08:06:02;15.80;90.90
19803;DHT22;66074;50.764;6.090;2023-05-20T08:08:27;15.80;90.90
19803;DHT22;66074;50.764;6.090;2023-05-20T08:10:55;15.90;90.90
19803;DHT22;66074;50.764;6.090;2023-05-20T08:13:21;15.90;90.80
19803;DHT22;66074;50.764;6.090;2023-05-20T08:15:47;15.90;90.90
19803;DHT22;66074;50.764;6.090;2023-05-20T08:18:14;15.90;90.60
19803;DHT22;66074;50.764;6.090;2023-05-20T08:20:39;16.00;90.60
19803;DHT22;66074;50.764;6.090;2023-05-20T08:23:06;16.00;90.50
19803;DHT22;66074;50.764;6.090;2023-05-20T08:25:32;16.00;90.50
19803;DHT22;66074;50.764;6.090;2023-05-20T08:28:00;16.00;90.40
19803;DHT22;66074;50.764;6.090;2023-05-20T08:30:28;15.90;90.20
19803;DHT22;66074;50.764;6.090;2023-05-20T08:32:54;16.00;90.40
19803;DHT22;66074;50.764;6.090;2023-05-20T08:35:20;16.00;90.20
19803;DHT22;66074;50.764;6.090;2023-05-20T08:37:46;15.90;90.30
19803;DHT22;66074;50.764;6.090;2023-05-20T08:40:13;15.90;90.20
19803;DHT22;66074;50.764;6.090;2023-05-20T08:42:42;15.90;90.10
19803;DHT22;66074;50.764;6.090;2023-05-20T08:45:11;15.90;90.00
19803;DHT22;66074;50.764;6.090;2023-05-20T08:47:41;16.10;90.00
19803;DHT22;66074;50.764;6.090;2023-05-20T08:50:11;16.20;90.20
19803;DHT22;66074;50.764;6.090;2023-05-20T08:52:46;16.40;90.10
19803;DHT22;66074;50.764;6.090;2023-05-20T08:55:17;16.40;90.10
19803;DHT22;66074;50.764;6.090;2023-05-20T08:57:50;16.30;89.80
19803;DHT22;66074;50.764;6.090;2023-05-20T09:00:16;16.30;89.80
19803;DHT22;66074;50.764;6.090;2023-05-20T09:02:46;16.30;90.00
19803;DHT22;66074;50.764;6.090;2023-05-20T09:05:12;16.30;90.10
19803;DHT22;66074;50.764;6.090;2023-05-20T09:07:38;16.30;90.00
19803;DHT22;66074;50.764;6.090;2023-05-20T09:10:04;16.30;90.00
19803;DHT22;66074;50.764;6.090;2023-05-20T09:12:30;16.30;89.80
19803;DHT22;66074;50.764;6.090;2023-05-20T09:14:56;16.30;90.00
19803;DHT22;66074;50.764;6.090;2023-05-20T09:17:25;16.40;90.10
19803;DHT22;66074;50.764;6.090;2023-05-20T09:19:52;16.50;90.00
19803;DHT22;66074;50.764;6.090;2023-05-20T09:22:27;16.50;89.90
19803;DHT22;66074;50.764;6.090;2023-05-20T09:24:54;16.50;89.70
19803;DHT22;66074;50.764;6.090;2023-05-20T09:27:20;16.60;90.00
19803;DHT22;66074;50.764;6.090;2023-05-20T09:29:47;16.70;89.90
19803;DHT22;66074;50.764;6.090;2023-05-20T09:32:13;16.60;89.80
19803;DHT22;66074;50.764;6.090;2023-05-20T09:34:39;16.60;90.30
19803;DHT22;66074;50.764;6.090;2023-05-20T09:37:09;16.60;89.90
19803;DHT22;66074;50.764;6.090;2023-05-20T09:39:43;16.70;90.00
19803;DHT22;66074;50.764;6.090;2023-05-20T09:42:39;16.70;90.00
19803;DHT22;66074;50.764;6.090;2023-05-20T09:45:07;16.80;89.70
19803;DHT22;66074;50.764;6.090;2023-05-20T09:47:37;16.90;89.90
19803;DHT22;66074;50.764;6.090;2023-05-20T09:50:06;17.00;89.70
19803;DHT22;66074;50.764;6.090;2023-05-20T09:52:36;17.10;90.00
19803;DHT22;66074;50.764;6.090;2023-05-20T09:55:02;17.20;89.90
19803;DHT22;66074;50.764;6.090;2023-05-20T09:57:34;17.30;89.60
19803;DHT22;66074;50.764;6.090;2023-05-20T10:00:01;17.50;89.90
19803;DHT22;66074;50.764;6.090;2023-05-20T10:02:27;17.60;89.30
19803;DHT22;66074;50.764;6.090;2023-05-20T10:04:55;17.70;89.40
19803;DHT22;66074;50.764;6.090;2023-05-20T10:07:50;17.70;88.70
19803;DHT22;66074;50.764;6.090;2023-05-20T10:13:27;17.70;88.10
19803;DHT22;66074;50.764;6.090;2023-05-20T10:18:57;17.90;88.50
19803;DHT22;66074;50.764;6.090;2023-05-20T10:21:25;17.90;88.30
19803;DHT22;66074;50.764;6.090;2023-05-20T10:23:51;17.90;88.80
19803;DHT22;66074;50.764;6.090;2023-05-20T10:26:17;17.70;88.40
19803;DHT22;66074;50.764;6.090;2023-05-20T10:28:45;17.80;88.80
19803;DHT22;66074;50.764;6.090;2023-05-20T10:31:21;17.70;88.60
19803;DHT22;66074;50.764;6.090;2023-05-20T10:33:47;17.80;88.70
19803;DHT22;66074;50.764;6.090;2023-05-20T10:36:26;17.80;88.90
19803;DHT22;66074;50.764;6.090;2023-05-20T10:38:56;18.00;88.70
19803;DHT22;66074;50.764;6.090;2023-05-20T10:41:27;18.10;88.10
19803;DHT22;66074;50.764;6.090;2023-05-20T10:44:04;18.20;88.10
19803;DHT22;66074;50.764;6.090;2023-05-20T10:46:31;18.30;87.80
19803;DHT22;66074;50.764;6.090;2023-05-20T10:48:57;18.50;87.70
19803;DHT22;66074;50.764;6.090;2023-05-20T10:51:23;18.60;87.70
19803;DHT22;66074;50.764;6.090;2023-05-20T10:53:52;18.70;88.20
19803;DHT22;66074;50.764;6.090;2023-05-20T10:56:24;18.90;88.00
19803;DHT22;66074;50.764;6.090;2023-05-20T10:58:52;18.90;87.40
19803;DHT22;66074;50.764;6.090;2023-05-20T11:01:24;19.00;87.80
19803;DHT22;66074;50.764;6.090;2023-05-20T11:03:52;18.90;87.60
19803;DHT22;66074;50.764;6.090;2023-05-20T11:06:19;18.80;87.10
19803;DHT22;66074;50.764;6.090;2023-05-20T11:08:45;18.80;87.30
19803;DHT22;66074;50.764;6.090;2023-05-20T11:11:11;18.70;87.10
19803;DHT22;66074;50.764;6.090;2023-05-20T11:13:38;18.60;87.00
19803;DHT22;66074;50.764;6.090;2023-05-20T11:16:04;18.60;87.10
19803;DHT22;66074;50.764;6.090;2023-05-20T11:18:30;18.70;87.20
19803;DHT22;66074;50.764;6.090;2023-05-20T11:21:00;18.80;87.30
19803;DHT22;66074;50.764;6.090;2023-05-20T11:23:27;18.80;86.70
19803;DHT22;66074;50.764;6.090;2023-05-20T11:25:54;19.00;87.30
19803;DHT22;66074;50.764;6.090;2023-05-20T11:28:21;19.20;87.90
19803;DHT22;66074;50.764;6.090;2023-05-20T11:30:47;19.40;86.90
19803;DHT22;66074;50.764;6.090;2023-05-20T11:33:15;19.40;86.70
19803;DHT22;66074;50.764;6.090;2023-05-20T11:35:51;19.40;86.50
19803;DHT22;66074;50.764;6.090;2023-05-20T11:38:17;19.30;86.30
19803;DHT22;66074;50.764;6.090;2023-05-20T11:40:51;19.40;86.50
19803;DHT22;66074;50.764;6.090;2023-05-20T11:43:17;19.50;85.90
19803;DHT22;66074;50.764;6.090;2023-05-20T11:45:44;19.40;86.40
19803;DHT22;66074;50.764;6.090;2023-05-20T11:48:11;19.50;86.50
19803;DHT22;66074;50.764;6.090;2023-05-20T11:50:41;19.40;86.00
19803;DHT22;66074;50.764;6.090;2023-05-20T11:53:09;19.30;86.10
19803;DHT22;66074;50.764;6.090;2023-05-20T11:55:57;19.40;86.30
19803;DHT22;66074;50.764;6.090;2023-05-20T11:58:25;19.20;86.00
19803;DHT22;66074;50.764;6.090;2023-05-20T12:00:51;19.20;86.20
19803;DHT22;66074;50.764;6.090;2023-05-20T12:03:17;19.30;86.50
19803;DHT22;66074;50.764;6.090;2023-05-20T12:05:43;19.30;86.50
19803;DHT22;66074;50.764;6.090;2023-05-20T12:08:09;19.30;86.60
19803;DHT22;66074;50.764;6.090;2023-05-20T12:10:35;19.40;86.50
19803;DHT22;66074;50.764;6.090;2023-05-20T12:13:04;19.40;86.70
19803;DHT22;66074;50.764;6.090;2023-05-20T12:15:36;19.60;87.40
19803;DHT22;66074;50.764;6.090;2023-05-20T12:18:02;19.90;86.10
19803;DHT22;66074;50.764;6.090;2023-05-20T12:20:29;20.00;86.10
19803;DHT22;66074;50.764;6.090;2023-05-20T12:22:56;20.10;86.10
19803;DHT22;66074;50.764;6.090;2023-05-20T12:25:22;20.20;86.10
19803;DHT22;66074;50.764;6.090;2023-05-20T12:27:48;20.30;85.80
19803;DHT22;66074;50.764;6.090;2023-05-20T12:30:18;20.50;85.70
19803;DHT22;66074;50.764;6.090;2023-05-20T12:32:45;20.30;85.00
19803;DHT22;66074;50.764;6.090;2023-05-20T12:35:12;20.40;85.20
19803;DHT22;66074;50.764;6.090;2023-05-20T12:37:41;20.50;85.20
19803;DHT22;66074;50.764;6.090;2023-05-20T12:40:09;20.60;84.70
19803;DHT22;66074;50.764;6.090;2023-05-20T12:42:36;20.70;84.80
19803;DHT22;66074;50.764;6.090;2023-05-20T12:45:02;20.60;84.40
19803;DHT22;66074;50.764;6.090;2023-05-20T12:47:28;20.40;84.80
19803;DHT22;66074;50.764;6.090;2023-05-20T12:49:54;20.50;85.30
19803;DHT22;66074;50.764;6.090;2023-05-20T12:52:20;20.60;85.10
19803;DHT22;66074;50.764;6.090;2023-05-20T12:54:45;20.60;84.90
19803;DHT22;66074;50.764;6.090;2023-05-20T12:57:11;20.70;85.10
19803;DHT22;66074;50.764;6.090;2023-05-20T12:59:37;20.80;85.10
19803;DHT22;66074;50.764;6.090;2023-05-20T13:02:02;21.00;85.00
19803;DHT22;66074;50.764;6.090;2023-05-20T13:04:28;20.90;84.70
19803;DHT22;66074;50.764;6.090;2023-05-20T13:06:54;20.80;84.70
19803;DHT22;66074;50.764;6.090;2023-05-20T13:09:20;20.50;84.70
19803;DHT22;66074;50.764;6.090;2023-05-20T13:11:46;20.60;84.90
19803;DHT22;66074;50.764;6.090;2023-05-20T13:14:11;20.60;85.00
19803;DHT22;66074;50.764;6.090;2023-05-20T13:16:37;20.60;84.70
19803;DHT22;66074;50.764;6.090;2023-05-20T13:19:03;20.40;84.90
19803;DHT22;66074;50.764;6.090;2023-05-20T13:21:29;20.30;85.00
19803;DHT22;66074;50.764;6.090;2023-05-20T13:23:54;20.30;85.10
19803;DHT22;66074;50.764;6.090;2023-05-20T13:26:20;20.50;84.90
19803;DHT22;66074;50.764;6.090;2023-05-20T13:28:46;20.30;85.00
19803;DHT22;66074;50.764;6.090;2023-05-20T13:31:12;20.10;85.00
19803;DHT22;66074;50.764;6.090;2023-05-20T13:33:37;20.20;85.00
19803;DHT22;66074;50.764;6.090;2023-05-20T13:36:03;20.30;85.70
19803;DHT22;66074;50.764;6.090;2023-05-20T13:38:29;20.40;85.00
19803;DHT22;66074;50.764;6.090;2023-05-20T13:40:54;20.30;85.00
19803;DHT22;66074;50.764;6.090;2023-05-20T13:43:24;20.30;84.90
19803;DHT22;66074;50.764;6.090;2023-05-20T13:45:50;20.10;85.00
19803;DHT22;66074;50.764;6.090;2023-05-20T13:48:15;20.10;85.20
19803;DHT22;66074;50.764;6.090;2023-05-20T13:50:41;20.30;85.30
19803;DHT22;66074;50.764;6.090;2023-05-20T13:53:07;20.50;85.50
19803;DHT22;66074;50.764;6.090;2023-05-20T13:55:37;20.80;85.20
19803;DHT22;66074;50.764;6.090;2023-05-20T13:58:02;21.20;85.40
19803;DHT22;66074;50.764;6.090;2023-05-20T14:00:30;22.00;84.60
19803;DHT22;66074;50.764;6.090;2023-05-20T14:02:56;22.30;83.40
19803;DHT22;66074;50.764;6.090;2023-05-20T14:05:22;22.90;82.90
19803;DHT22;66074;50.764;6.090;2023-05-20T14:07:47;22.90;82.10
19803;DHT22;66074;50.764;6.090;2023-05-20T14:10:13;22.50;82.60
19803;DHT22;66074;50.764;6.090;2023-05-20T14:12:39;22.00;82.60
19803;DHT22;66074;50.764;6.090;2023-05-20T14:15:05;21.50;82.90
19803;DHT22;66074;50.764;6.090;2023-05-20T14:17:31;21.40;83.50
19803;DHT22;66074;50.764;6.090;2023-05-20T14:19:56;21.10;83.60
19803;DHT22;66074;50.764;6.090;2023-05-20T14:22:22;21.10;83.90
19803;DHT22;66074;50.764;6.090;2023-05-20T14:24:48;21.20;84.10
19803;DHT22;66074;50.764;6.090;2023-05-20T14:27:13;22.40;84.10
19803;DHT22;66074;50.764;6.090;2023-05-20T14:29:39;22.50;83.20
19803;DHT22;66074;50.764;6.090;2023-05-20T14:32:05;23.00;83.00
19803;DHT22;66074;50.764;6.090;2023-05-20T14:34:31;22.70;82.50
19803;DHT22;66074;50.764;6.090;2023-05-20T14:36:56;22.20;82.20
19803;DHT22;66074;50.764;6.090;2023-05-20T14:39:22;22.50;83.10
19803;DHT22;66074;50.764;6.090;2023-05-20T14:41:47;23.90;82.90
19803;DHT22;66074;50.764;6.090;2023-05-20T14:44:13;24.40;81.10
19803;DHT22;66074;50.764;6.090;2023-05-20T14:46:39;23.60;80.30
19803;DHT22;66074;50.764;6.090;2023-05-20T14:49:04;22.70;80.80
19803;DHT22;66074;50.764;6.090;2023-05-20T14:51:30;21.90;81.30
19803;DHT22;66074;50.764;6.090;2023-05-20T14:53:56;21.50;82.00
19803;DHT22;66074;50.764;6.090;2023-05-20T14:56:22;21.10;82.70
19803;DHT22;66074;50.764;6.090;2023-05-20T14:58:47;20.70;82.90
19803;DHT22;66074;50.764;6.090;2023-05-20T15:01:13;20.50;83.20
19803;DHT22;66074;50.764;6.090;2023-05-20T15:03:38;20.20;83.70
19803;DHT22;66074;50.764;6.090;2023-05-20T15:06:04;20.10;84.10
19803;DHT22;66074;50.764;6.090;2023-05-20T15:08:30;20.10;84.20
19803;DHT22;66074;50.764;6.090;2023-05-20T15:10:56;19.90;84.40
19803;DHT22;66074;50.764;6.090;2023-05-20T15:13:22;19.60;84.40
19803;DHT22;66074;50.764;6.090;2023-05-20T15:15:47;19.50;85.00
19803;DHT22;66074;50.764;6.090;2023-05-20T15:18:13;19.30;85.30
19803;DHT22;66074;50.764;6.090;2023-05-20T15:20:39;19.20;85.40
19803;DHT22;66074;50.764;6.090;2023-05-20T15:23:04;19.20;85.80
19803;DHT22;66074;50.764;6.090;2023-05-20T15:25:30;19.10;85.90
19803;DHT22;66074;50.764;6.090;2023-05-20T15:27:56;19.00;86.30
19803;DHT22;66074;50.764;6.090;2023-05-20T15:30:21;18.90;86.20
19803;DHT22;66074;50.764;6.090;2023-05-20T15:32:47;18.90;86.70